Karla A — TCCR8 — position and weather

sailwx.info

Track history (hours):
 
Tides and Currents Weather Stations Pressure Air Temp Water Temp Dewpoint Dewpoint Depression Visibility Wind Speed Wind Dir Waves Ship Positions

Karla A

Last reported at 2015-Mar-26 10:33 UTC. Time now 2015-Mar-27 13:18 UTC.
Position N 40°25' E 029°04'.

Length 155 m; draft 8.3 m.

Type: Ship (hazmat cat A). MMSI: 271000744.

Date/timePositionNaut miles runAvg speedWind from/ knotsBaromVisibWave heightAir tempDewpointWater temp
2015-Mar-26 10:33N 40°25' E 029°04'0 0.2
2015-Mar-26 09:30N 40°25' E 029°05'0 0.0
2015-Mar-26 08:28N 40°25' E 029°05'0 0.0
2015-Mar-26 07:27N 40°25' E 029°05'0 0.0
2015-Mar-26 06:33N 40°25' E 029°05'0 0.0
2015-Mar-26 05:32N 40°25' E 029°05'0 0.0
2015-Mar-26 04:33N 40°25' E 029°05'0 0.0
2015-Mar-26 03:32N 40°25' E 029°05'0 0.0
2015-Mar-26 02:31N 40°25' E 029°05'0 0.0
2015-Mar-26 01:13N 40°25' E 029°05'0 0.0
2015-Mar-26 00:18N 40°25' E 029°05'0 0.1
2015-Mar-25 22:31N 40°25' E 029°04'19 9.9
2015-Mar-25 20:33N 40°35' E 028°43'1414.0
2015-Mar-25 19:33N 40°49' E 028°41'7 0.3
2015-Mar-24 20:04N 40°56' E 028°40'4 7.0
2015-Mar-24 19:33N 40°55' E 028°45'1311.7
2015-Mar-24 18:29N 41°00' E 028°60'0 0.1
2015-Mar-24 14:04N 41°00' E 029°00'0 0.0
2015-Mar-24 13:28N 41°00' E 029°00'0 0.0
2015-Mar-24 09:26N 41°00' E 029°00'0 0.0
2015-Mar-24 06:06N 41°00' E 029°00'0 0.0
2015-Mar-24 05:29N 41°00' E 029°00'0 0.0
2015-Mar-24 04:29N 41°00' E 029°00'0 0.0
2015-Mar-24 03:17N 41°00' E 029°00'0 0.6
2015-Mar-24 02:33N 41°01' E 029°00'8 7.2
2015-Mar-24 01:29N 40°53' E 029°00'1213.4
2015-Mar-24 00:33N 40°45' E 029°13'9 8.4
2015-Mar-23 23:32N 40°45' E 029°25'1111.0
2015-Mar-23 22:32N 40°45' E 029°39'3 2.1
2015-Mar-23 21:11N 40°46' E 029°43'0 0.0
2015-Mar-23 18:28N 40°46' E 029°43'0 0.1
2015-Mar-23 14:07N 40°46' E 029°42'6 7.4
2015-Mar-23 13:15N 40°45' E 029°34'812.0
2015-Mar-23 12:33N 40°44' E 029°23'1312.9
2015-Mar-23 11:33N 40°43' E 029°06'3 2.7
2015-Mar-23 10:26N 40°43' E 029°02'0 0.3
2015-Mar-23 09:33N 40°43' E 029°02'0 0.2
2015-Mar-23 08:33N 40°43' E 029°02'0 0.2
2015-Mar-23 07:33N 40°43' E 029°02'0 0.3
2015-Mar-23 06:33N 40°43' E 029°02'1 0.5
2015-Mar-23 05:33N 40°43' E 029°03'0 0.4
2015-Mar-23 04:33N 40°43' E 029°04'0 0.5
2015-Mar-23 03:33N 40°43' E 029°04'0 0.4
2015-Mar-23 02:34N 40°43' E 029°04'0 0.2
2015-Mar-23 01:33N 40°43' E 029°05'5 4.9
2015-Mar-23 00:33N 40°47' E 029°06'0 0.3
2015-Mar-22 23:33N 40°47' E 029°06'1 0.6
2015-Mar-22 22:33N 40°47' E 029°06'8 8.2
2015-Mar-22 21:33N 40°41' E 028°57'1 1.1
2015-Mar-22 20:33N 40°42' E 028°57'1 1.3
2015-Mar-22 19:33N 40°44' E 028°58'1 1.4
2015-Mar-22 18:32N 40°45' E 028°58'1 1.4
2015-Mar-22 17:34N 40°46' E 028°60'8 7.6
2015-Mar-22 16:33N 40°43' E 028°50'1613.3
2015-Mar-22 15:19N 40°44' E 028°28'23210.6
2015-Mar-21 17:29N 37°27' E 025°50'6212.4
2015-Mar-21 12:29N 36°37' E 026°36'  
Track history (hours):
 
Tides and Currents Weather Stations Pressure Air Temp Water Temp Dewpoint Dewpoint Depression Visibility Wind Speed Wind Dir Waves Ship Positions

Karla A

Last reported at 2015-Mar-26 10:33 UTC. Time now 2015-Mar-27 13:18 UTC.
Position N 40°25' E 029°04'.

Length 155 m; draft 8.3 m.

Type: Ship (hazmat cat A). MMSI: 271000744.

Date/timePositionNaut miles runAvg speedWind from/ knotsBaromVisibWave heightAir tempDewpointWater temp
2015-Mar-26 10:33N 40°25' E 029°04'0 0.2
2015-Mar-26 09:30N 40°25' E 029°05'0 0.0
2015-Mar-26 08:28N 40°25' E 029°05'0 0.0
2015-Mar-26 07:27N 40°25' E 029°05'0 0.0
2015-Mar-26 06:33N 40°25' E 029°05'0 0.0
2015-Mar-26 05:32N 40°25' E 029°05'0 0.0
2015-Mar-26 04:33N 40°25' E 029°05'0 0.0
2015-Mar-26 03:32N 40°25' E 029°05'0 0.0
2015-Mar-26 02:31N 40°25' E 029°05'0 0.0
2015-Mar-26 01:13N 40°25' E 029°05'0 0.0
2015-Mar-26 00:18N 40°25' E 029°05'0 0.1
2015-Mar-25 22:31N 40°25' E 029°04'19 9.9
2015-Mar-25 20:33N 40°35' E 028°43'1414.0
2015-Mar-25 19:33N 40°49' E 028°41'7 0.3
2015-Mar-24 20:04N 40°56' E 028°40'4 7.0
2015-Mar-24 19:33N 40°55' E 028°45'1311.7
2015-Mar-24 18:29N 41°00' E 028°60'0 0.1
2015-Mar-24 14:04N 41°00' E 029°00'0 0.0
2015-Mar-24 13:28N 41°00' E 029°00'0 0.0
2015-Mar-24 09:26N 41°00' E 029°00'0 0.0
2015-Mar-24 06:06N 41°00' E 029°00'0 0.0
2015-Mar-24 05:29N 41°00' E 029°00'0 0.0
2015-Mar-24 04:29N 41°00' E 029°00'0 0.0
2015-Mar-24 03:17N 41°00' E 029°00'0 0.6
2015-Mar-24 02:33N 41°01' E 029°00'8 7.2
2015-Mar-24 01:29N 40°53' E 029°00'1213.4
2015-Mar-24 00:33N 40°45' E 029°13'9 8.4
2015-Mar-23 23:32N 40°45' E 029°25'1111.0
2015-Mar-23 22:32N 40°45' E 029°39'3 2.1
2015-Mar-23 21:11N 40°46' E 029°43'0 0.0
2015-Mar-23 18:28N 40°46' E 029°43'0 0.1
2015-Mar-23 14:07N 40°46' E 029°42'6 7.4
2015-Mar-23 13:15N 40°45' E 029°34'812.0
2015-Mar-23 12:33N 40°44' E 029°23'1312.9
2015-Mar-23 11:33N 40°43' E 029°06'3 2.7
2015-Mar-23 10:26N 40°43' E 029°02'0 0.3
2015-Mar-23 09:33N 40°43' E 029°02'0 0.2
2015-Mar-23 08:33N 40°43' E 029°02'0 0.2
2015-Mar-23 07:33N 40°43' E 029°02'0 0.3
2015-Mar-23 06:33N 40°43' E 029°02'1 0.5
2015-Mar-23 05:33N 40°43' E 029°03'0 0.4
2015-Mar-23 04:33N 40°43' E 029°04'0 0.5
2015-Mar-23 03:33N 40°43' E 029°04'0 0.4
2015-Mar-23 02:34N 40°43' E 029°04'0 0.2
2015-Mar-23 01:33N 40°43' E 029°05'5 4.9
2015-Mar-23 00:33N 40°47' E 029°06'0 0.3
2015-Mar-22 23:33N 40°47' E 029°06'1 0.6
2015-Mar-22 22:33N 40°47' E 029°06'8 8.2
2015-Mar-22 21:33N 40°41' E 028°57'1 1.1
2015-Mar-22 20:33N 40°42' E 028°57'1 1.3
2015-Mar-22 19:33N 40°44' E 028°58'1 1.4
2015-Mar-22 18:32N 40°45' E 028°58'1 1.4
2015-Mar-22 17:34N 40°46' E 028°60'8 7.6
2015-Mar-22 16:33N 40°43' E 028°50'1613.3
2015-Mar-22 15:19N 40°44' E 028°28'23210.6
2015-Mar-21 17:29N 37°27' E 025°50'6212.4
2015-Mar-21 12:29N 36°37' E 026°36'  

Dump ship's entire track history